sensor_id;sensor_type;location;lat;lon;timestamp;P1;durP1;ratioP1;P2;durP2;ratioP2
3175;SDS011;1599;51.564;6.990;2023-08-08T00:01:20;7.23;;;3.37;;
3175;SDS011;1599;51.564;6.990;2023-08-08T00:03:46;9.03;;;4.37;;
3175;SDS011;1599;51.564;6.990;2023-08-08T00:06:12;11.13;;;3.70;;
3175;SDS011;1599;51.564;6.990;2023-08-08T00:08:38;4.00;;;3.10;;
3175;SDS011;1599;51.564;6.990;2023-08-08T00:11:04;9.53;;;3.20;;
3175;SDS011;1599;51.564;6.990;2023-08-08T00:13:30;5.70;;;3.20;;
3175;SDS011;1599;51.564;6.990;2023-08-08T00:15:55;5.10;;;3.90;;
3175;SDS011;1599;51.564;6.990;2023-08-08T00:18:21;6.20;;;3.17;;
3175;SDS011;1599;51.564;6.990;2023-08-08T00:20:47;5.00;;;3.20;;
3175;SDS011;1599;51.564;6.990;2023-08-08T00:23:13;4.77;;;3.10;;
3175;SDS011;1599;51.564;6.990;2023-08-08T00:25:39;9.30;;;3.90;;
3175;SDS011;1599;51.564;6.990;2023-08-08T00:28:04;5.07;;;3.40;;
3175;SDS011;1599;51.564;6.990;2023-08-08T00:30:30;5.47;;;3.30;;
3175;SDS011;1599;51.564;6.990;2023-08-08T00:32:56;5.23;;;3.43;;
3175;SDS011;1599;51.564;6.990;2023-08-08T00:35:21;7.47;;;3.60;;
3175;SDS011;1599;51.564;6.990;2023-08-08T00:37:47;4.70;;;3.40;;
3175;SDS011;1599;51.564;6.990;2023-08-08T00:40:13;5.00;;;3.27;;
3175;SDS011;1599;51.564;6.990;2023-08-08T00:42:39;5.70;;;2.83;;
3175;SDS011;1599;51.564;6.990;2023-08-08T00:45:05;5.70;;;3.13;;
3175;SDS011;1599;51.564;6.990;2023-08-08T00:47:32;5.47;;;3.67;;
3175;SDS011;1599;51.564;6.990;2023-08-08T00:49:59;6.87;;;3.60;;
3175;SDS011;1599;51.564;6.990;2023-08-08T00:52:27;4.10;;;3.23;;
3175;SDS011;1599;51.564;6.990;2023-08-08T00:54:54;4.80;;;3.03;;
3175;SDS011;1599;51.564;6.990;2023-08-08T00:57:20;6.80;;;3.20;;
3175;SDS011;1599;51.564;6.990;2023-08-08T00:59:46;6.00;;;3.20;;
3175;SDS011;1599;51.564;6.990;2023-08-08T01:02:11;5.97;;;3.60;;
3175;SDS011;1599;51.564;6.990;2023-08-08T01:04:37;6.23;;;3.37;;
3175;SDS011;1599;51.564;6.990;2023-08-08T01:09:33;4.47;;;3.13;;
3175;SDS011;1599;51.564;6.990;2023-08-08T01:12:06;7.00;;;3.57;;
3175;SDS011;1599;51.564;6.990;2023-08-08T01:14:36;4.23;;;2.93;;
3175;SDS011;1599;51.564;6.990;2023-08-08T01:17:03;6.03;;;2.97;;
3175;SDS011;1599;51.564;6.990;2023-08-08T01:19:31;5.40;;;2.80;;
3175;SDS011;1599;51.564;6.990;2023-08-08T01:22:01;5.27;;;3.20;;
3175;SDS011;1599;51.564;6.990;2023-08-08T01:24:30;8.93;;;3.53;;
3175;SDS011;1599;51.564;6.990;2023-08-08T01:26:58;5.47;;;3.30;;
3175;SDS011;1599;51.564;6.990;2023-08-08T01:29:25;5.60;;;3.40;;
3175;SDS011;1599;51.564;6.990;2023-08-08T01:31:52;7.20;;;3.20;;
3175;SDS011;1599;51.564;6.990;2023-08-08T01:34:18;8.03;;;3.07;;
3175;SDS011;1599;51.564;6.990;2023-08-08T01:36:46;5.70;;;3.57;;
3175;SDS011;1599;51.564;6.990;2023-08-08T01:39:23;7.20;;;3.33;;
3175;SDS011;1599;51.564;6.990;2023-08-08T01:41:52;9.00;;;2.93;;
3175;SDS011;1599;51.564;6.990;2023-08-08T01:44:20;7.67;;;4.03;;
3175;SDS011;1599;51.564;6.990;2023-08-08T01:46:48;7.90;;;3.50;;
3175;SDS011;1599;51.564;6.990;2023-08-08T01:49:14;5.00;;;3.17;;
3175;SDS011;1599;51.564;6.990;2023-08-08T01:51:40;10.50;;;3.50;;
3175;SDS011;1599;51.564;6.990;2023-08-08T01:54:06;4.60;;;3.10;;
3175;SDS011;1599;51.564;6.990;2023-08-08T01:56:32;6.70;;;3.50;;
3175;SDS011;1599;51.564;6.990;2023-08-08T01:58:57;7.80;;;3.57;;
3175;SDS011;1599;51.564;6.990;2023-08-08T02:01:23;6.47;;;3.57;;
3175;SDS011;1599;51.564;6.990;2023-08-08T02:03:49;6.40;;;3.20;;
3175;SDS011;1599;51.564;6.990;2023-08-08T02:06:14;8.97;;;3.70;;
3175;SDS011;1599;51.564;6.990;2023-08-08T02:08:40;7.60;;;4.30;;
3175;SDS011;1599;51.564;6.990;2023-08-08T02:11:06;9.70;;;3.70;;
3175;SDS011;1599;51.564;6.990;2023-08-08T02:13:32;6.63;;;3.27;;
3175;SDS011;1599;51.564;6.990;2023-08-08T02:15:57;5.63;;;3.70;;
3175;SDS011;1599;51.564;6.990;2023-08-08T02:18:23;5.80;;;3.37;;
3175;SDS011;1599;51.564;6.990;2023-08-08T02:20:49;8.53;;;3.37;;
3175;SDS011;1599;51.564;6.990;2023-08-08T02:23:15;5.60;;;3.33;;
3175;SDS011;1599;51.564;6.990;2023-08-08T02:25:40;5.70;;;3.70;;
3175;SDS011;1599;51.564;6.990;2023-08-08T02:28:06;8.00;;;3.40;;
3175;SDS011;1599;51.564;6.990;2023-08-08T02:30:32;7.37;;;3.57;;
3175;SDS011;1599;51.564;6.990;2023-08-08T02:32:58;10.30;;;4.03;;
3175;SDS011;1599;51.564;6.990;2023-08-08T02:35:23;4.70;;;3.57;;
3175;SDS011;1599;51.564;6.990;2023-08-08T02:37:49;9.17;;;4.00;;
3175;SDS011;1599;51.564;6.990;2023-08-08T02:40:15;7.40;;;4.40;;
3175;SDS011;1599;51.564;6.990;2023-08-08T02:42:40;8.43;;;3.70;;
3175;SDS011;1599;51.564;6.990;2023-08-08T02:45:06;9.33;;;3.90;;
3175;SDS011;1599;51.564;6.990;2023-08-08T02:47:32;6.10;;;3.63;;
3175;SDS011;1599;51.564;6.990;2023-08-08T02:49:58;8.43;;;3.73;;
3175;SDS011;1599;51.564;6.990;2023-08-08T02:52:24;9.20;;;4.40;;
3175;SDS011;1599;51.564;6.990;2023-08-08T02:54:50;5.27;;;3.47;;
3175;SDS011;1599;51.564;6.990;2023-08-08T02:57:16;8.53;;;4.13;;
3175;SDS011;1599;51.564;6.990;2023-08-08T02:59:41;5.90;;;4.30;;
3175;SDS011;1599;51.564;6.990;2023-08-08T03:02:07;4.73;;;3.70;;
3175;SDS011;1599;51.564;6.990;2023-08-08T03:04:33;8.23;;;4.50;;
3175;SDS011;1599;51.564;6.990;2023-08-08T03:06:59;7.30;;;3.87;;
3175;SDS011;1599;51.564;6.990;2023-08-08T03:09:29;8.20;;;4.57;;
3175;SDS011;1599;51.564;6.990;2023-08-08T03:11:55;7.23;;;4.90;;
3175;SDS011;1599;51.564;6.990;2023-08-08T03:14:21;11.10;;;3.83;;
3175;SDS011;1599;51.564;6.990;2023-08-08T03:16:46;11.00;;;4.20;;
3175;SDS011;1599;51.564;6.990;2023-08-08T03:19:12;7.73;;;4.87;;
3175;SDS011;1599;51.564;6.990;2023-08-08T03:21:38;9.13;;;4.00;;
3175;SDS011;1599;51.564;6.990;2023-08-08T03:24:04;7.13;;;4.20;;
3175;SDS011;1599;51.564;6.990;2023-08-08T03:26:30;8.50;;;4.77;;
3175;SDS011;1599;51.564;6.990;2023-08-08T03:28:55;6.50;;;5.23;;
3175;SDS011;1599;51.564;6.990;2023-08-08T03:31:21;8.33;;;4.03;;
3175;SDS011;1599;51.564;6.990;2023-08-08T03:33:47;8.77;;;4.37;;
3175;SDS011;1599;51.564;6.990;2023-08-08T03:36:13;8.50;;;3.83;;
3175;SDS011;1599;51.564;6.990;2023-08-08T03:38:40;10.10;;;5.30;;
3175;SDS011;1599;51.564;6.990;2023-08-08T03:41:09;8.10;;;5.13;;
3175;SDS011;1599;51.564;6.990;2023-08-08T03:43:35;7.07;;;4.50;;
3175;SDS011;1599;51.564;6.990;2023-08-08T03:46:00;8.57;;;4.60;;
3175;SDS011;1599;51.564;6.990;2023-08-08T03:48:26;8.33;;;4.70;;
3175;SDS011;1599;51.564;6.990;2023-08-08T03:50:52;7.83;;;4.90;;
3175;SDS011;1599;51.564;6.990;2023-08-08T03:53:17;7.17;;;4.93;;
3175;SDS011;1599;51.564;6.990;2023-08-08T03:55:43;10.53;;;5.90;;
3175;SDS011;1599;51.564;6.990;2023-08-08T03:58:09;8.57;;;4.80;;
3175;SDS011;1599;51.564;6.990;2023-08-08T04:00:34;9.37;;;4.90;;
3175;SDS011;1599;51.564;6.990;2023-08-08T04:03:01;11.20;;;4.90;;
3175;SDS011;1599;51.564;6.990;2023-08-08T04:05:26;8.10;;;5.47;;
3175;SDS011;1599;51.564;6.990;2023-08-08T04:07:52;7.63;;;5.30;;
3175;SDS011;1599;51.564;6.990;2023-08-08T04:10:18;8.67;;;5.07;;
3175;SDS011;1599;51.564;6.990;2023-08-08T04:12:43;9.03;;;4.73;;
3175;SDS011;1599;51.564;6.990;2023-08-08T04:15:09;9.67;;;4.90;;
3175;SDS011;1599;51.564;6.990;2023-08-08T04:17:35;9.80;;;4.97;;
3175;SDS011;1599;51.564;6.990;2023-08-08T04:20:02;10.80;;;5.80;;
3175;SDS011;1599;51.564;6.990;2023-08-08T04:22:30;10.00;;;6.33;;
3175;SDS011;1599;51.564;6.990;2023-08-08T04:24:56;12.97;;;6.20;;
3175;SDS011;1599;51.564;6.990;2023-08-08T04:27:21;10.80;;;5.73;;
3175;SDS011;1599;51.564;6.990;2023-08-08T04:29:47;10.37;;;6.07;;
3175;SDS011;1599;51.564;6.990;2023-08-08T04:32:13;10.80;;;5.93;;
3175;SDS011;1599;51.564;6.990;2023-08-08T04:34:39;9.10;;;5.53;;
3175;SDS011;1599;51.564;6.990;2023-08-08T04:37:04;11.47;;;5.97;;
3175;SDS011;1599;51.564;6.990;2023-08-08T04:39:30;9.93;;;6.50;;
3175;SDS011;1599;51.564;6.990;2023-08-08T04:41:56;11.80;;;6.47;;
3175;SDS011;1599;51.564;6.990;2023-08-08T04:44:22;9.87;;;6.10;;
3175;SDS011;1599;51.564;6.990;2023-08-08T04:46:47;11.23;;;5.43;;
3175;SDS011;1599;51.564;6.990;2023-08-08T04:49:13;9.00;;;5.60;;
3175;SDS011;1599;51.564;6.990;2023-08-08T04:51:39;7.50;;;5.33;;
3175;SDS011;1599;51.564;6.990;2023-08-08T04:54:04;9.07;;;5.80;;
3175;SDS011;1599;51.564;6.990;2023-08-08T04:56:30;13.07;;;6.23;;
3175;SDS011;1599;51.564;6.990;2023-08-08T04:58:56;8.70;;;5.50;;
3175;SDS011;1599;51.564;6.990;2023-08-08T05:01:22;11.60;;;6.00;;
3175;SDS011;1599;51.564;6.990;2023-08-08T05:03:48;12.93;;;5.87;;
3175;SDS011;1599;51.564;6.990;2023-08-08T05:06:14;10.37;;;6.07;;
3175;SDS011;1599;51.564;6.990;2023-08-08T05:08:40;13.37;;;7.57;;
3175;SDS011;1599;51.564;6.990;2023-08-08T05:11:06;12.57;;;7.40;;
3175;SDS011;1599;51.564;6.990;2023-08-08T05:13:32;10.30;;;7.63;;
3175;SDS011;1599;51.564;6.990;2023-08-08T05:15:58;10.10;;;6.50;;
3175;SDS011;1599;51.564;6.990;2023-08-08T05:18:23;12.00;;;7.20;;
3175;SDS011;1599;51.564;6.990;2023-08-08T05:20:49;14.43;;;7.57;;
3175;SDS011;1599;51.564;6.990;2023-08-08T05:23:15;17.43;;;8.97;;
3175;SDS011;1599;51.564;6.990;2023-08-08T05:25:41;12.33;;;8.37;;
3175;SDS011;1599;51.564;6.990;2023-08-08T05:28:07;17.90;;;9.40;;
3175;SDS011;1599;51.564;6.990;2023-08-08T05:30:32;15.87;;;8.73;;
3175;SDS011;1599;51.564;6.990;2023-08-08T05:32:58;14.57;;;9.80;;
3175;SDS011;1599;51.564;6.990;2023-08-08T05:35:24;13.17;;;8.30;;
3175;SDS011;1599;51.564;6.990;2023-08-08T05:37:50;14.90;;;8.43;;
3175;SDS011;1599;51.564;6.990;2023-08-08T05:40:15;10.37;;;8.00;;
3175;SDS011;1599;51.564;6.990;2023-08-08T05:42:41;22.80;;;10.30;;
3175;SDS011;1599;51.564;6.990;2023-08-08T05:45:07;17.17;;;10.53;;
3175;SDS011;1599;51.564;6.990;2023-08-08T05:47:33;18.73;;;8.73;;
3175;SDS011;1599;51.564;6.990;2023-08-08T05:49:59;17.53;;;10.27;;
3175;SDS011;1599;51.564;6.990;2023-08-08T05:52:25;15.80;;;10.37;;
3175;SDS011;1599;51.564;6.990;2023-08-08T05:54:50;13.20;;;10.13;;
3175;SDS011;1599;51.564;6.990;2023-08-08T05:57:16;14.60;;;9.90;;
3175;SDS011;1599;51.564;6.990;2023-08-08T05:59:42;19.43;;;10.90;;
3175;SDS011;1599;51.564;6.990;2023-08-08T06:02:09;15.50;;;10.60;;
3175;SDS011;1599;51.564;6.990;2023-08-08T06:04:35;16.43;;;10.63;;
3175;SDS011;1599;51.564;6.990;2023-08-08T06:07:01;20.60;;;12.20;;
3175;SDS011;1599;51.564;6.990;2023-08-08T06:09:27;22.27;;;13.57;;
3175;SDS011;1599;51.564;6.990;2023-08-08T06:11:53;20.50;;;12.40;;
3175;SDS011;1599;51.564;6.990;2023-08-08T06:14:19;22.00;;;14.00;;
3175;SDS011;1599;51.564;6.990;2023-08-08T06:16:44;21.33;;;14.67;;
3175;SDS011;1599;51.564;6.990;2023-08-08T06:19:11;20.63;;;13.60;;
3175;SDS011;1599;51.564;6.990;2023-08-08T06:21:38;22.63;;;14.43;;
3175;SDS011;1599;51.564;6.990;2023-08-08T06:24:04;18.90;;;14.53;;
3175;SDS011;1599;51.564;6.990;2023-08-08T06:26:30;19.90;;;14.07;;
3175;SDS011;1599;51.564;6.990;2023-08-08T06:28:56;24.90;;;16.03;;
3175;SDS011;1599;51.564;6.990;2023-08-08T06:31:21;21.83;;;15.23;;
3175;SDS011;1599;51.564;6.990;2023-08-08T06:33:47;21.37;;;14.83;;
3175;SDS011;1599;51.564;6.990;2023-08-08T06:36:13;26.00;;;16.00;;
3175;SDS011;1599;51.564;6.990;2023-08-08T06:38:39;20.17;;;15.47;;
3175;SDS011;1599;51.564;6.990;2023-08-08T06:41:04;24.63;;;15.60;;
3175;SDS011;1599;51.564;6.990;2023-08-08T06:43:30;24.73;;;16.60;;
3175;SDS011;1599;51.564;6.990;2023-08-08T06:45:56;27.60;;;18.10;;
3175;SDS011;1599;51.564;6.990;2023-08-08T06:48:22;22.90;;;16.97;;
3175;SDS011;1599;51.564;6.990;2023-08-08T06:50:48;22.97;;;17.53;;
3175;SDS011;1599;51.564;6.990;2023-08-08T06:53:14;29.23;;;18.40;;
3175;SDS011;1599;51.564;6.990;2023-08-08T06:55:40;28.07;;;18.13;;
3175;SDS011;1599;51.564;6.990;2023-08-08T06:58:06;25.17;;;19.30;;
3175;SDS011;1599;51.564;6.990;2023-08-08T07:00:32;23.00;;;17.43;;
3175;SDS011;1599;51.564;6.990;2023-08-08T07:02:58;26.63;;;18.07;;
3175;SDS011;1599;51.564;6.990;2023-08-08T07:05:25;27.43;;;18.20;;
3175;SDS011;1599;51.564;6.990;2023-08-08T07:07:51;23.27;;;17.10;;
3175;SDS011;1599;51.564;6.990;2023-08-08T07:10:17;18.73;;;15.37;;
3175;SDS011;1599;51.564;6.990;2023-08-08T07:12:44;26.27;;;15.33;;
3175;SDS011;1599;51.564;6.990;2023-08-08T07:15:10;25.83;;;13.80;;
3175;SDS011;1599;51.564;6.990;2023-08-08T07:17:36;23.23;;;13.13;;
3175;SDS011;1599;51.564;6.990;2023-08-08T07:20:03;17.27;;;12.43;;
3175;SDS011;1599;51.564;6.990;2023-08-08T07:22:30;17.83;;;12.17;;
3175;SDS011;1599;51.564;6.990;2023-08-08T07:24:57;21.23;;;11.67;;
3175;SDS011;1599;51.564;6.990;2023-08-08T07:27:25;16.00;;;11.70;;
3175;SDS011;1599;51.564;6.990;2023-08-08T07:29:51;15.73;;;10.80;;
3175;SDS011;1599;51.564;6.990;2023-08-08T07:32:17;13.30;;;11.03;;
3175;SDS011;1599;51.564;6.990;2023-08-08T07:34:43;16.33;;;11.30;;
3175;SDS011;1599;51.564;6.990;2023-08-08T07:37:09;18.23;;;10.00;;
3175;SDS011;1599;51.564;6.990;2023-08-08T07:39:34;13.60;;;10.00;;
3175;SDS011;1599;51.564;6.990;2023-08-08T07:42:00;19.20;;;11.80;;
3175;SDS011;1599;51.564;6.990;2023-08-08T07:44:26;17.63;;;10.53;;
3175;SDS011;1599;51.564;6.990;2023-08-08T07:46:52;14.27;;;10.70;;
3175;SDS011;1599;51.564;6.990;2023-08-08T07:49:17;12.93;;;9.73;;
3175;SDS011;1599;51.564;6.990;2023-08-08T07:51:43;15.37;;;9.63;;
3175;SDS011;1599;51.564;6.990;2023-08-08T07:54:09;14.67;;;8.47;;
3175;SDS011;1599;51.564;6.990;2023-08-08T07:56:36;10.30;;;8.80;;
3175;SDS011;1599;51.564;6.990;2023-08-08T07:59:02;12.60;;;8.30;;
3175;SDS011;1599;51.564;6.990;2023-08-08T08:01:28;14.00;;;8.10;;
3175;SDS011;1599;51.564;6.990;2023-08-08T08:03:54;17.93;;;7.37;;
3175;SDS011;1599;51.564;6.990;2023-08-08T08:06:20;10.93;;;7.80;;
3175;SDS011;1599;51.564;6.990;2023-08-08T08:08:46;11.93;;;6.07;;
3175;SDS011;1599;51.564;6.990;2023-08-08T08:11:12;13.50;;;6.87;;
3175;SDS011;1599;51.564;6.990;2023-08-08T08:13:41;8.87;;;5.87;;
3175;SDS011;1599;51.564;6.990;2023-08-08T08:16:08;16.23;;;7.23;;
3175;SDS011;1599;51.564;6.990;2023-08-08T08:18:33;10.67;;;6.43;;
3175;SDS011;1599;51.564;6.990;2023-08-08T08:21:00;10.30;;;5.10;;
3175;SDS011;1599;51.564;6.990;2023-08-08T08:23:26;8.67;;;5.60;;
3175;SDS011;1599;51.564;6.990;2023-08-08T08:25:52;9.33;;;4.80;;
3175;SDS011;1599;51.564;6.990;2023-08-08T08:28:17;7.80;;;4.13;;
3175;SDS011;1599;51.564;6.990;2023-08-08T08:30:43;5.87;;;4.30;;
3175;SDS011;1599;51.564;6.990;2023-08-08T08:33:09;8.07;;;3.97;;
3175;SDS011;1599;51.564;6.990;2023-08-08T08:35:35;9.37;;;3.50;;
3175;SDS011;1599;51.564;6.990;2023-08-08T08:38:01;10.20;;;4.50;;
3175;SDS011;1599;51.564;6.990;2023-08-08T08:40:27;8.37;;;4.30;;
3175;SDS011;1599;51.564;6.990;2023-08-08T08:42:55;8.70;;;3.97;;
3175;SDS011;1599;51.564;6.990;2023-08-08T08:45:21;7.50;;;3.60;;
3175;SDS011;1599;51.564;6.990;2023-08-08T08:47:48;8.60;;;3.20;;
3175;SDS011;1599;51.564;6.990;2023-08-08T08:50:18;9.20;;;3.23;;
3175;SDS011;1599;51.564;6.990;2023-08-08T08:52:44;6.33;;;3.70;;
3175;SDS011;1599;51.564;6.990;2023-08-08T08:55:10;6.20;;;4.03;;
3175;SDS011;1599;51.564;6.990;2023-08-08T08:57:36;11.63;;;4.03;;
3175;SDS011;1599;51.564;6.990;2023-08-08T09:00:04;6.60;;;3.00;;
3175;SDS011;1599;51.564;6.990;2023-08-08T09:02:31;6.77;;;3.20;;
3175;SDS011;1599;51.564;6.990;2023-08-08T09:04:57;4.73;;;2.87;;
3175;SDS011;1599;51.564;6.990;2023-08-08T09:07:27;7.47;;;2.87;;
3175;SDS011;1599;51.564;6.990;2023-08-08T09:09:54;6.67;;;3.60;;
3175;SDS011;1599;51.564;6.990;2023-08-08T09:12:20;10.07;;;3.50;;
3175;SDS011;1599;51.564;6.990;2023-08-08T09:14:53;5.53;;;3.30;;
3175;SDS011;1599;51.564;6.990;2023-08-08T09:17:21;4.13;;;2.77;;
3175;SDS011;1599;51.564;6.990;2023-08-08T09:19:49;6.43;;;2.70;;
3175;SDS011;1599;51.564;6.990;2023-08-08T09:22:15;7.80;;;3.30;;
3175;SDS011;1599;51.564;6.990;2023-08-08T09:24:41;4.63;;;2.50;;
3175;SDS011;1599;51.564;6.990;2023-08-08T09:27:07;6.67;;;3.70;;
3175;SDS011;1599;51.564;6.990;2023-08-08T09:29:35;5.30;;;2.90;;
3175;SDS011;1599;51.564;6.990;2023-08-08T09:32:05;8.60;;;3.33;;
3175;SDS011;1599;51.564;6.990;2023-08-08T09:34:31;3.93;;;2.40;;
3175;SDS011;1599;51.564;6.990;2023-08-08T09:36:58;10.90;;;3.37;;
3175;SDS011;1599;51.564;6.990;2023-08-08T09:39:25;4.67;;;2.80;;
3175;SDS011;1599;51.564;6.990;2023-08-08T09:41:51;5.03;;;3.13;;
3175;SDS011;1599;51.564;6.990;2023-08-08T09:44:17;5.73;;;3.17;;
3175;SDS011;1599;51.564;6.990;2023-08-08T09:46:47;6.23;;;3.30;;
3175;SDS011;1599;51.564;6.990;2023-08-08T09:49:15;5.90;;;4.07;;
3175;SDS011;1599;51.564;6.990;2023-08-08T09:51:41;6.20;;;3.00;;
3175;SDS011;1599;51.564;6.990;2023-08-08T09:54:07;12.37;;;3.50;;
3175;SDS011;1599;51.564;6.990;2023-08-08T09:56:34;8.47;;;3.60;;
3175;SDS011;1599;51.564;6.990;2023-08-08T09:59:02;8.07;;;3.70;;
3175;SDS011;1599;51.564;6.990;2023-08-08T10:01:31;7.93;;;3.73;;
3175;SDS011;1599;51.564;6.990;2023-08-08T10:03:57;8.10;;;3.47;;
3175;SDS011;1599;51.564;6.990;2023-08-08T10:06:24;5.43;;;3.50;;
3175;SDS011;1599;51.564;6.990;2023-08-08T10:08:51;5.43;;;3.00;;
3175;SDS011;1599;51.564;6.990;2023-08-08T10:11:17;7.90;;;4.27;;
3175;SDS011;1599;51.564;6.990;2023-08-08T10:13:48;6.37;;;4.13;;
3175;SDS011;1599;51.564;6.990;2023-08-08T10:16:16;6.93;;;3.67;;
3175;SDS011;1599;51.564;6.990;2023-08-08T10:18:43;6.30;;;3.70;;
3175;SDS011;1599;51.564;6.990;2023-08-08T10:21:11;8.43;;;4.87;;
3175;SDS011;1599;51.564;6.990;2023-08-08T10:23:38;4.80;;;3.43;;
3175;SDS011;1599;51.564;6.990;2023-08-08T10:26:05;5.67;;;3.63;;
3175;SDS011;1599;51.564;6.990;2023-08-08T10:28:52;6.83;;;3.50;;
3175;SDS011;1599;51.564;6.990;2023-08-08T10:31:21;7.50;;;3.57;;
3175;SDS011;1599;51.564;6.990;2023-08-08T10:33:48;6.50;;;4.50;;
3175;SDS011;1599;51.564;6.990;2023-08-08T10:36:14;7.03;;;3.70;;
3175;SDS011;1599;51.564;6.990;2023-08-08T10:41:16;10.77;;;4.50;;
3175;SDS011;1599;51.564;6.990;2023-08-08T10:43:48;8.80;;;4.40;;
3175;SDS011;1599;51.564;6.990;2023-08-08T10:46:39;9.30;;;4.87;;
3175;SDS011;1599;51.564;6.990;2023-08-08T10:49:06;7.90;;;5.00;;
3175;SDS011;1599;51.564;6.990;2023-08-08T10:51:36;7.73;;;4.77;;
3175;SDS011;1599;51.564;6.990;2023-08-08T10:56:40;8.27;;;4.20;;
3175;SDS011;1599;51.564;6.990;2023-08-08T10:59:17;5.00;;;4.13;;
3175;SDS011;1599;51.564;6.990;2023-08-08T11:01:49;10.03;;;4.60;;
3175;SDS011;1599;51.564;6.990;2023-08-08T11:04:18;4.87;;;4.40;;
3175;SDS011;1599;51.564;6.990;2023-08-08T11:06:46;6.43;;;4.83;;
3175;SDS011;1599;51.564;6.990;2023-08-08T11:09:15;10.93;;;4.47;;
3175;SDS011;1599;51.564;6.990;2023-08-08T11:11:42;7.10;;;4.60;;
3175;SDS011;1599;51.564;6.990;2023-08-08T11:14:10;6.17;;;4.47;;
3175;SDS011;1599;51.564;6.990;2023-08-08T11:16:45;5.57;;;4.40;;
3175;SDS011;1599;51.564;6.990;2023-08-08T11:19:12;6.33;;;4.10;;
3175;SDS011;1599;51.564;6.990;2023-08-08T11:21:39;6.50;;;3.97;;
3175;SDS011;1599;51.564;6.990;2023-08-08T11:24:10;4.07;;;2.97;;
3175;SDS011;1599;51.564;6.990;2023-08-08T11:26:39;5.60;;;3.33;;
3175;SDS011;1599;51.564;6.990;2023-08-08T11:29:06;4.80;;;2.73;;
3175;SDS011;1599;51.564;6.990;2023-08-08T11:31:33;6.90;;;3.30;;
3175;SDS011;1599;51.564;6.990;2023-08-08T11:34:00;3.80;;;3.10;;
3175;SDS011;1599;51.564;6.990;2023-08-08T11:36:29;5.70;;;3.50;;
3175;SDS011;1599;51.564;6.990;2023-08-08T11:39:02;5.17;;;3.23;;
3175;SDS011;1599;51.564;6.990;2023-08-08T11:41:33;6.27;;;3.77;;
3175;SDS011;1599;51.564;6.990;2023-08-08T11:44:01;5.60;;;4.60;;
3175;SDS011;1599;51.564;6.990;2023-08-08T11:46:29;9.20;;;3.40;;
3175;SDS011;1599;51.564;6.990;2023-08-08T11:49:01;8.33;;;3.90;;
3175;SDS011;1599;51.564;6.990;2023-08-08T11:51:32;6.00;;;3.67;;
3175;SDS011;1599;51.564;6.990;2023-08-08T11:53:59;4.20;;;2.93;;
3175;SDS011;1599;51.564;6.990;2023-08-08T11:56:29;4.10;;;2.87;;
3175;SDS011;1599;51.564;6.990;2023-08-08T11:58:58;5.60;;;3.27;;
3175;SDS011;1599;51.564;6.990;2023-08-08T12:01:25;8.73;;;3.87;;
3175;SDS011;1599;51.564;6.990;2023-08-08T12:03:52;5.90;;;2.83;;
3175;SDS011;1599;51.564;6.990;2023-08-08T12:06:19;7.23;;;3.60;;
3175;SDS011;1599;51.564;6.990;2023-08-08T12:08:46;3.97;;;3.03;;
3175;SDS011;1599;51.564;6.990;2023-08-08T12:11:13;5.17;;;3.63;;
3175;SDS011;1599;51.564;6.990;2023-08-08T12:13:40;6.57;;;3.80;;
3175;SDS011;1599;51.564;6.990;2023-08-08T12:16:09;5.27;;;3.43;;
3175;SDS011;1599;51.564;6.990;2023-08-08T12:18:37;5.67;;;3.30;;
3175;SDS011;1599;51.564;6.990;2023-08-08T12:21:07;3.97;;;3.30;;
3175;SDS011;1599;51.564;6.990;2023-08-08T12:23:35;4.03;;;3.33;;
3175;SDS011;1599;51.564;6.990;2023-08-08T12:26:05;4.63;;;3.23;;
3175;SDS011;1599;51.564;6.990;2023-08-08T12:28:32;4.90;;;3.10;;
3175;SDS011;1599;51.564;6.990;2023-08-08T12:30:59;4.87;;;3.17;;
3175;SDS011;1599;51.564;6.990;2023-08-08T12:33:25;5.73;;;3.53;;
3175;SDS011;1599;51.564;6.990;2023-08-08T12:35:51;4.40;;;3.07;;
3175;SDS011;1599;51.564;6.990;2023-08-08T12:38:17;6.53;;;2.80;;
3175;SDS011;1599;51.564;6.990;2023-08-08T12:40:43;4.70;;;3.27;;
3175;SDS011;1599;51.564;6.990;2023-08-08T12:43:09;5.40;;;2.67;;
3175;SDS011;1599;51.564;6.990;2023-08-08T12:45:38;5.20;;;2.73;;
3175;SDS011;1599;51.564;6.990;2023-08-08T12:48:05;3.27;;;2.37;;
3175;SDS011;1599;51.564;6.990;2023-08-08T12:50:31;5.37;;;2.87;;
3175;SDS011;1599;51.564;6.990;2023-08-08T12:52:57;5.03;;;3.00;;
3175;SDS011;1599;51.564;6.990;2023-08-08T12:55:22;9.27;;;3.10;;
3175;SDS011;1599;51.564;6.990;2023-08-08T12:57:48;5.73;;;4.00;;
3175;SDS011;1599;51.564;6.990;2023-08-08T13:00:14;5.33;;;3.57;;
3175;SDS011;1599;51.564;6.990;2023-08-08T13:02:41;7.30;;;3.57;;
3175;SDS011;1599;51.564;6.990;2023-08-08T13:05:08;8.10;;;4.70;;
3175;SDS011;1599;51.564;6.990;2023-08-08T13:07:34;4.83;;;3.17;;
3175;SDS011;1599;51.564;6.990;2023-08-08T13:10:01;5.40;;;4.17;;
3175;SDS011;1599;51.564;6.990;2023-08-08T13:12:26;4.73;;;3.37;;
3175;SDS011;1599;51.564;6.990;2023-08-08T13:14:52;8.50;;;3.90;;
3175;SDS011;1599;51.564;6.990;2023-08-08T13:17:18;6.00;;;3.50;;
3175;SDS011;1599;51.564;6.990;2023-08-08T13:19:44;5.77;;;3.67;;
3175;SDS011;1599;51.564;6.990;2023-08-08T13:22:10;6.87;;;3.60;;
3175;SDS011;1599;51.564;6.990;2023-08-08T13:24:37;4.00;;;3.60;;
3175;SDS011;1599;51.564;6.990;2023-08-08T13:27:03;4.80;;;4.30;;
3175;SDS011;1599;51.564;6.990;2023-08-08T13:29:30;4.17;;;3.10;;
3175;SDS011;1599;51.564;6.990;2023-08-08T13:31:56;7.10;;;3.33;;
3175;SDS011;1599;51.564;6.990;2023-08-08T13:34:21;6.17;;;3.77;;
3175;SDS011;1599;51.564;6.990;2023-08-08T13:36:47;6.03;;;3.63;;
3175;SDS011;1599;51.564;6.990;2023-08-08T13:39:13;3.80;;;3.33;;
3175;SDS011;1599;51.564;6.990;2023-08-08T13:41:39;5.30;;;3.37;;
3175;SDS011;1599;51.564;6.990;2023-08-08T13:44:05;4.43;;;4.03;;
3175;SDS011;1599;51.564;6.990;2023-08-08T13:46:30;4.43;;;3.53;;
3175;SDS011;1599;51.564;6.990;2023-08-08T13:48:56;4.83;;;3.90;;
3175;SDS011;1599;51.564;6.990;2023-08-08T13:51:22;8.60;;;4.47;;
3175;SDS011;1599;51.564;6.990;2023-08-08T13:53:48;5.67;;;3.40;;
3175;SDS011;1599;51.564;6.990;2023-08-08T13:56:14;5.13;;;3.63;;
3175;SDS011;1599;51.564;6.990;2023-08-08T13:58:39;5.60;;;3.57;;
3175;SDS011;1599;51.564;6.990;2023-08-08T14:01:05;5.43;;;3.77;;
3175;SDS011;1599;51.564;6.990;2023-08-08T14:03:31;4.70;;;3.37;;
3175;SDS011;1599;51.564;6.990;2023-08-08T14:05:57;7.50;;;4.23;;
3175;SDS011;1599;51.564;6.990;2023-08-08T14:08:23;5.53;;;3.70;;
3175;SDS011;1599;51.564;6.990;2023-08-08T14:10:48;4.73;;;3.40;;
3175;SDS011;1599;51.564;6.990;2023-08-08T14:13:14;5.53;;;3.60;;
3175;SDS011;1599;51.564;6.990;2023-08-08T14:15:41;4.83;;;3.47;;
3175;SDS011;1599;51.564;6.990;2023-08-08T14:18:06;8.50;;;3.37;;
3175;SDS011;1599;51.564;6.990;2023-08-08T14:20:32;4.07;;;2.43;;
3175;SDS011;1599;51.564;6.990;2023-08-08T14:22:58;9.83;;;2.97;;
3175;SDS011;1599;51.564;6.990;2023-08-08T14:25:24;8.33;;;2.73;;
3175;SDS011;1599;51.564;6.990;2023-08-08T14:27:50;3.53;;;2.13;;
3175;SDS011;1599;51.564;6.990;2023-08-08T14:30:16;4.20;;;2.67;;
3175;SDS011;1599;51.564;6.990;2023-08-08T14:32:42;3.80;;;2.87;;
3175;SDS011;1599;51.564;6.990;2023-08-08T14:35:08;4.40;;;2.90;;
3175;SDS011;1599;51.564;6.990;2023-08-08T14:37:35;4.73;;;2.50;;
3175;SDS011;1599;51.564;6.990;2023-08-08T14:40:01;4.20;;;3.07;;
3175;SDS011;1599;51.564;6.990;2023-08-08T14:42:27;4.77;;;2.50;;
3175;SDS011;1599;51.564;6.990;2023-08-08T14:44:53;2.57;;;2.00;;
3175;SDS011;1599;51.564;6.990;2023-08-08T14:47:19;3.40;;;2.50;;
3175;SDS011;1599;51.564;6.990;2023-08-08T14:49:45;3.60;;;2.23;;
3175;SDS011;1599;51.564;6.990;2023-08-08T14:52:12;4.77;;;2.13;;
3175;SDS011;1599;51.564;6.990;2023-08-08T14:54:38;3.23;;;2.00;;
3175;SDS011;1599;51.564;6.990;2023-08-08T14:57:04;4.37;;;2.07;;
3175;SDS011;1599;51.564;6.990;2023-08-08T14:59:30;3.87;;;2.20;;
3175;SDS011;1599;51.564;6.990;2023-08-08T15:01:56;4.17;;;2.37;;
3175;SDS011;1599;51.564;6.990;2023-08-08T15:04:22;2.90;;;1.77;;
3175;SDS011;1599;51.564;6.990;2023-08-08T15:06:48;3.80;;;1.70;;
3175;SDS011;1599;51.564;6.990;2023-08-08T15:09:13;3.43;;;1.87;;
3175;SDS011;1599;51.564;6.990;2023-08-08T15:11:39;3.00;;;1.53;;
3175;SDS011;1599;51.564;6.990;2023-08-08T15:14:05;4.03;;;2.10;;